• Join FlightAware (Why Join?)
  • Login
  • US Flag 
03:02PM EDT


 

Airport Tracker/Info


-or-


 

Live Flight TrackerFlight Track Log ✈ TAM3420 ✈ 25-May-2013 ✈ SBGL / GIG - SBBE / BEL

Flight Track Log - Related Links

Times and Time Zones

All times are in EDT time to prevent confusion due to time zone crossing. See the TAM3420 flight status page for this flight to view local times or setup timezone preferences in your user account.

Time Position Orientation Groundspeed Altitude Reporting Facility
EDT Latitude Longitude Course Direction KTS MPH feet Rate Location/Type
09:12AM -22.7840 -43.1930 67° East 177 204 1,500  Level FlightAware
09:12AM -22.7630 -43.1730 41° Northeast 208 239 2,100 2,340 Climbing FlightAware
09:13AM -22.6950 -43.1610 North 244 281 4,800 2,700 Climbing FlightAware
09:14AM -22.6630 -43.1750 338° Northwest 263 303 5,800 2,520 Climbing FlightAware
09:14AM -22.6310 -43.1870 341° North 262 302 7,200 3,000 Climbing FlightAware
09:14AM -22.6040 -43.1970 341° North 256 295 8,400 2,280 Climbing FlightAware
09:15AM -22.5740 -43.2100 338° Northwest 275 316 9,100 1,740 Climbing FlightAware
09:15AM -22.5470 -43.2210 339° North 289 333 9,800 1,680 Climbing FlightAware
09:16AM -22.5160 -43.2340 339° North 293 337 10,800 2,220 Climbing FlightAware
09:17AM -22.4500 -43.2620 339° North 298 343 13,000 1,860 Climbing FlightAware
09:17AM -22.4050 -43.2810 339° North 319 367 13,600 840 Climbing FlightAware
09:18AM -22.3400 -43.3080 339° North 365 420 14,200 1,260 Climbing FlightAware
09:19AM -22.2700 -43.3370 339° North 386 444 15,300 1,980 Climbing FlightAware
09:19AM -22.1990 -43.3670 339° North 384 442 17,000 2,040 Climbing FlightAware
09:20AM -22.0930 -43.4120 339° North 403 464 18,700 1,740 Climbing FlightAware
09:21AM -22.0260 -43.4400 339° North 405 466 19,900 1,980 Climbing FlightAware
09:22AM -21.9350 -43.4770 339° North 404 465 21,600 2,040 Climbing FlightAware
09:22AM -21.8710 -43.4950 345° North 410 472 22,600 1,500 Climbing FlightAware
09:23AM -21.7890 -43.5170 346° North 412 474 23,600 1,500 Climbing FlightAware
09:24AM -21.7010 -43.5410 346° North 413 475 24,900 1,320 Climbing FlightAware
09:24AM -21.6320 -43.5590 346° North 419 482 25,500 960 Climbing FlightAware
09:25AM -21.5340 -43.5850 346° North 423 487 26,500 960 Climbing FlightAware
09:26AM -21.4510 -43.6060 347° North 429 494 27,200 1,080 Climbing FlightAware
09:27AM -21.3660 -43.6270 347° North 431 496 28,000 1,140 Climbing FlightAware
09:28AM -21.2640 -43.6530 347° North 432 497 28,900 900 Climbing FlightAware
09:28AM -21.1970 -43.6700 347° North 437 503 29,300 780 Climbing FlightAware
09:29AM -21.1160 -43.6910 346° North 441 507 29,900 900 Climbing FlightAware
09:30AM -21.0160 -43.7150 347° North 441 507 30,700 1,020 Climbing FlightAware
09:30AM -20.9970 -43.7200 346° North 441 507 30,900 1,020 Climbing FlightAware
09:31AM -20.8260 -43.7630 347° North 435 501 32,400 1,080 Climbing FlightAware
09:32AM -20.7380 -43.7850 347° North 429 494 33,300 1,020 Climbing FlightAware
09:33AM -20.6580 -43.8050 347° North 429 494 33,900 720 Climbing FlightAware
09:33AM -20.5720 -43.8270 347° North 429 494 34,400 780 Climbing FlightAware
09:34AM -20.4970 -43.8450 347° North 427 491 35,000 360 Climbing FlightAware
09:35AM -20.4020 -43.8670 348° North 425 489 35,000  Level FlightAware
09:36AM -20.3050 -43.8910 347° North 427 491 35,000  Level FlightAware
09:37AM -20.2210 -43.9110 347° North 423 487 35,000  Level FlightAware
09:37AM -20.1420 -43.9300 347° North 422 486 35,000  Level FlightAware
09:38AM -20.0580 -43.9500 347° North 424 488 35,000  Level FlightAware
09:39AM -19.9820 -43.9680 347° North 425 489 35,000  Level FlightAware
09:39AM -19.9060 -43.9870 347° North 426 490 35,000  Level FlightAware
09:40AM -19.8180 -44.0070 348° North 434 499 35,000  Level FlightAware
09:41AM -19.7390 -44.0190 352° North 438 504 35,000  Level FlightAware
09:41AM -19.6510 -44.0330 351° North 440 506 35,000  Level FlightAware
09:42AM -19.5670 -44.0470 351° North 439 505 35,000  Level FlightAware
09:43AM -19.4830 -44.0680 347° North 433 498 35,000  Level FlightAware
09:44AM -19.3910 -44.0920 346° North 435 501 35,000  Level FlightAware
09:44AM -19.2970 -44.1160 346° North 437 503 35,000  Level FlightAware
09:45AM -19.2160 -44.1370 346° North 438 504 35,000  Level FlightAware
09:46AM -19.1390 -44.1570 346° North 439 505 35,000  Level FlightAware
09:46AM -19.0510 -44.1790 347° North 439 505 35,000  Level FlightAware
09:47AM -18.9680 -44.2010 346° North 437 503 35,000  Level FlightAware
09:48AM -18.8800 -44.2230 347° North 437 503 35,000  Level FlightAware
09:49AM -18.8010 -44.2440 346° North 437 503 35,000  Level FlightAware
09:49AM -18.7200 -44.2640 347° North 438 504 35,000  Level FlightAware
09:50AM -18.6330 -44.2860 347° North 438 504 35,000  Level FlightAware
09:51AM -18.5540 -44.3060 347° North 436 502 35,000  Level FlightAware
09:51AM -18.4760 -44.3260 346° North 432 497 35,000  Level FlightAware
09:52AM -18.3830 -44.3500 346° North 428 493 35,000  Level FlightAware
09:53AM -18.3040 -44.3700 346° North 427 491 35,000  Level FlightAware
09:53AM -18.2250 -44.3900 346° North 427 491 35,000  Level FlightAware
09:54AM -18.1380 -44.4120 346° North 430 495 35,000  Level FlightAware
09:55AM -18.0690 -44.4300 346° North 432 497 35,000  Level FlightAware
09:56AM -17.9880 -44.4510 346° North 433 498 35,000  Level FlightAware
09:56AM -17.8990 -44.4750 346° North 435 501 35,000 60 Level FlightAware
09:57AM -17.8150 -44.4970 346° North 435 501 35,100  Climbing FlightAware
09:58AM -17.7300 -44.5200 346° North 433 498 35,000 -60 Descending FlightAware
09:59AM -17.6260 -44.5480 346° North 432 497 35,000  Level FlightAware
09:59AM -17.5460 -44.5670 347° North 434 499 35,000  Level FlightAware
10:00AM -17.4250 -44.5970 347° North 437 503 35,000  Level FlightAware
10:01AM -17.3570 -44.6140 347° North 439 505 35,000  Level FlightAware
10:02AM -17.2710 -44.6350 347° North 441 507 35,000  Level FlightAware
10:02AM -17.1920 -44.6540 347° North 442 509 35,000  Level FlightAware
10:03AM -17.1090 -44.6750 346° North 442 509 35,000  Level FlightAware
10:04AM -17.0070 -44.7000 347° North 441 507 35,000  Level FlightAware
10:04AM -16.9320 -44.7180 347° North 441 507 35,000  Level FlightAware
10:05AM -16.8160 -44.7470 347° North 443 510 35,000  Level FlightAware
10:06AM -16.7350 -44.7680 346° North 443 510 35,000  Level FlightAware
10:07AM -16.6460 -44.7900 347° North 444 511 35,000  Level FlightAware
10:07AM -16.5730 -44.8090 346° North 444 511 35,000  Level FlightAware
10:08AM -16.4440 -44.8410 347° North 446 513 35,000  Level FlightAware
10:10AM -16.3070 -44.8750 347° North 447 514 35,000  Level FlightAware
10:10AM -16.2070 -44.9000 347° North 446 513 35,000  Level FlightAware
10:11AM -16.1200 -44.9230 346° North 446 513 35,000  Level FlightAware
10:12AM -16.0590 -44.9390 346° North 446 513 35,000  Level FlightAware
10:13AM -15.9770 -44.9600 346° North 446 513 35,000  Level FlightAware
10:13AM -15.9110 -44.9770 346° North 446 513 35,000  Level FlightAware
10:14AM -15.8480 -44.9930 346° North 446 513 35,000  Level FlightAware
10:15AM -15.7660 -45.0140 346° North 446 513 35,000  Level FlightAware
10:15AM -15.7010 -45.0310 346° North 446 513 35,000  Level FlightAware
10:16AM -15.6330 -45.0490 346° North 446 513 35,000  Level FlightAware
10:17AM -15.5520 -45.0700 346° North 446 513 35,000  Level FlightAware
10:17AM -15.4900 -45.0860 346° North 446 513 35,000  Level FlightAware
10:18AM -15.4090 -45.1070 346° North 446 513 35,000  Level FlightAware
10:19AM -15.3490 -45.1220 346° North 446 513 35,000  Level FlightAware
10:20AM -15.2660 -45.1440 346° North 446 513 35,000  Level FlightAware
10:22AM -15.0718 -45.1928 346° North  Level Estimated
10:23AM -14.9658 -45.2194 346° North  Level Estimated
10:24AM -14.8599 -45.2459 346° North  Level Estimated
10:25AM -14.7540 -45.2724 346° North  Level Estimated
10:26AM -14.6480 -45.2989 346° North  Level Estimated
10:27AM -14.5421 -45.3254 346° North  Level Estimated
10:28AM -14.4361 -45.3518 346° North  Level Estimated
10:29AM -14.3301 -45.3783 346° North  Level Estimated
10:30AM -14.2242 -45.4047 346° North  Level Estimated
10:31AM -14.1182 -45.4310 346° North  Level Estimated
10:32AM -14.0122 -45.4574 346° North  Level Estimated
10:33AM -13.9063 -45.4837 346° North  Level Estimated
10:34AM -13.7899 -45.5126 346° North  Level Estimated
10:35AM -13.6736 -45.5414 346° North  Level Estimated
10:36AM -13.5572 -45.5702 346° North  Level Estimated
10:37AM -13.4409 -45.5990 346° North  Level Estimated
10:38AM -13.3245 -45.6278 346° North  Level Estimated
10:39AM -13.2082 -45.6565 346° North  Level Estimated
10:40AM -13.0918 -45.6852 346° North  Level Estimated
10:41AM -12.9755 -45.7138 346° North  Level Estimated
10:42AM -12.8591 -45.7425 347° North  Level Estimated
10:43AM -12.7427 -45.7711 347° North  Level Estimated
10:44AM -12.6264 -45.7997 347° North  Level Estimated
10:45AM -12.5100 -45.8283 347° North  Level Estimated
10:46AM -12.3936 -45.8568 347° North  Level Estimated
10:47AM -12.2772 -45.8853 347° North  Level Estimated
10:48AM -12.1608 -45.9138 347° North  Level Estimated
10:49AM -12.0444 -45.9423 347° North  Level Estimated
10:50AM -11.9281 -45.9707 347° North  Level Estimated
10:51AM -11.8117 -45.9992 347° North  Level Estimated
10:52AM -11.6953 -46.0275 347° North  Level Estimated
10:53AM -11.5789 -46.0559 347° North  Level Estimated
10:54AM -11.4625 -46.0843 347° North  Level Estimated
10:55AM -11.3461 -46.1126 347° North  Level Estimated
10:56AM -11.2296 -46.1409 347° North  Level Estimated
10:57AM -11.1132 -46.1692 347° North  Level Estimated
10:58AM -10.9968 -46.1974 347° North  Level Estimated
10:59AM -10.8804 -46.2257 347° North  Level Estimated
11:00AM -10.7640 -46.2539 347° North  Level Estimated
11:01AM -10.6476 -46.2821 347° North  Level Estimated
11:02AM -10.5312 -46.3102 347° North  Level Estimated
11:03AM -10.4147 -46.3384 347° North  Level Estimated
11:04AM -10.2983 -46.3665 347° North  Level Estimated
11:05AM -10.1819 -46.3946 347° North  Level Estimated
11:06AM -10.0654 -46.4227 347° North  Level Estimated
11:07AM -9.9490 -46.4507 347° North  Level Estimated
11:08AM -9.8326 -46.4788 347° North  Level Estimated
11:09AM -9.7161 -46.5068 347° North  Level Estimated
11:09AM -9.0550 -46.6970 347° North 455 524 35,000  Level FlightAware
11:10AM -9.5997 -46.5348 347° North  Level Estimated
11:10AM -8.9970 -46.7270 333° Northwest 455 524 35,000  Level FlightAware
11:10AM -8.9330 -46.7600 333° Northwest 455 524 35,000  Level FlightAware
11:11AM -8.8120 -46.8150 336° Northwest 458 527 35,000  Level FlightAware
11:12AM -8.7420 -46.8470 336° Northwest 458 527 35,000 60 Level FlightAware
11:13AM -8.6440 -46.8900 337° Northwest 457 526 35,100 60 Climbing FlightAware
11:14AM -8.5830 -46.9170 336° Northwest 457 526 35,100  Level FlightAware
11:14AM -8.5040 -46.9530 336° Northwest 457 526 35,100  Level FlightAware
11:15AM -8.4460 -46.9780 337° Northwest 457 526 35,100  Level FlightAware
11:16AM -8.3710 -47.0120 336° Northwest 457 526 35,100  Level FlightAware
11:16AM -8.3120 -47.0390 336° Northwest 457 526 35,100  Level FlightAware
11:17AM -8.2330 -47.0740 336° Northwest 457 526 35,100  Level FlightAware
11:18AM -8.1740 -47.1010 336° Northwest 457 526 35,100  Level FlightAware
11:18AM -8.0950 -47.1370 336° Northwest 457 526 35,100  Level FlightAware
11:19AM -8.0340 -47.1640 336° Northwest 457 526 35,100  Level FlightAware
11:20AM -7.9110 -47.2190 336° Northwest 457 526 35,100  Level FlightAware
11:21AM -7.8320 -47.2550 336° Northwest 457 526 35,100  Level FlightAware
11:22AM -7.7730 -47.2810 336° Northwest 457 526 35,100 -600 Level FlightAware
11:24AM -7.5652 -47.3203 349° North  Level Estimated
11:25AM -7.4476 -47.3425 349° North  Level Estimated
11:26AM -7.3299 -47.3647 349° North  Level Estimated
11:27AM -7.2123 -47.3869 349° North  Level Estimated
11:28AM -7.0947 -47.4090 349° North  Level Estimated
11:29AM -6.9770 -47.4312 349° North  Level Estimated
11:30AM -6.8594 -47.4534 349° North  Level Estimated
11:31AM -6.7418 -47.4755 349° North  Level Estimated
11:32AM -6.6242 -47.4976 349° North  Level Estimated
11:33AM -6.5065 -47.5197 349° North  Level Estimated
11:34AM -6.3889 -47.5419 349° North  Level Estimated
11:35AM -6.2713 -47.5639 349° North  Level Estimated
11:36AM -6.1536 -47.5860 349° North  Level Estimated
11:37AM -6.0360 -47.6081 349° North  Level Estimated
11:38AM -5.9183 -47.6302 349° North  Level Estimated
11:39AM -5.8007 -47.6522 349° North  Level Estimated
11:40AM -5.6831 -47.6743 349° North  Level Estimated
11:41AM -5.5654 -47.6963 349° North  Level Estimated
11:42AM -5.4478 -47.7184 349° North  Level Estimated
11:43AM -5.3301 -47.7404 349° North  Level Estimated
11:44AM -5.2125 -47.7624 349° North  Level Estimated
11:45AM -5.0949 -47.7844 349° North  Level Estimated
11:46AM -4.9772 -47.8064 349° North  Level Estimated
11:47AM -4.8596 -47.8284 349° North  Level Estimated
11:48AM -4.7419 -47.8504 349° North  Level Estimated
11:49AM -4.6243 -47.8724 349° North  Level Estimated
11:50AM -4.5066 -47.8943 349° North  Level Estimated
11:51AM -4.3890 -47.9163 349° North  Level Estimated
11:52AM -4.2713 -47.9383 349° North  Level Estimated
11:53AM -4.1537 -47.9602 349° North  Level Estimated
11:54AM -4.0360 -47.9822 349° North  Level Estimated
11:55AM -3.9184 -48.0041 349° North  Level Estimated
11:56AM -3.8007 -48.0260 349° North  Level Estimated
11:57AM -3.6831 -48.0479 349° North  Level Estimated
11:58AM -3.5654 -48.0699 349° North  Level Estimated
11:59AM -3.4478 -48.0918 349° North  Level Estimated
12:00PM -3.3301 -48.1137 349° North  Level Estimated
12:01PM -3.2125 -48.1356 349° North  Level Estimated
12:02PM -3.0948 -48.1575 349° North  Level Estimated
12:03PM -2.9772 -48.1794 349° North  Level Estimated
12:04PM -2.8595 -48.2013 349° North  Level Estimated
12:05PM -2.7418 -48.2231 349° North  Level Estimated
12:06PM -2.6242 -48.2450 349° North  Level Estimated
12:07PM -2.5065 -48.2669 349° North  Level Estimated
12:08PM -2.3889 -48.2888 349° North  Level Estimated
12:09PM -2.2712 -48.3106 349° North  Level Estimated
12:10PM -2.1535 -48.3325 349° North  Level Estimated
12:10PM -1.8180 -48.4540 349° North 308 354 8,300  Level FlightAware
12:11PM -2.0359 -48.3544 349° North  Level Estimated
12:11PM -1.7860 -48.4700 333° Northwest 308 354 8,300  Level FlightAware
12:12PM -1.7180 -48.5030 334° Northwest 299 344 6,300 -1,980 Descending FlightAware
12:12PM -1.6700 -48.5270 333° Northwest 294 338 5,400 -1,260 Descending FlightAware
12:13PM -1.6300 -48.5460 335° Northwest 269 310 5,100 -600 Descending FlightAware
12:13PM -1.5980 -48.5610 335° Northwest 249 287 4,800 -360 Descending FlightAware
12:14PM -1.5760 -48.5730 331° Northwest 249 287 4,800 -1,200 Level FlightAware
12:15PM -1.5980 -48.5610 151° Southeast 249 287 3,300 -1,620 Descending FlightAware
12:15PM -1.4890 -48.5860 347° North 219 252 2,500 -780 Descending FlightAware
12:16PM -1.4700 -48.5710 38° Northeast 219 252 2,500 -960 Level FlightAware
12:16PM -1.4520 -48.5490 51° Northeast 218 251 1,700 -1,320 Descending FlightAware
12:17PM -1.4360 -48.5340 43° Northeast 159 183 1,300 -900 Descending FlightAware
12:17PM -1.4260 -48.5230 48° Northeast 151 174 1,000 -840 Descending FlightAware
12:17PM -1.4130 -48.5110 43° Northeast 147 169 700 -720 Descending FlightAware
12:18PM -1.4010 -48.4980 47° Northeast 147 169 400 -720 Descending FlightAware
12:20PM -1.3793 -48.4763 45° Northeast  Level Estimated
12:21PM -1.3793 -48.4763 270° West  Level Estimated
12:22PM -1.3793 -48.4763 270° West  Level Estimated
12:23PM -1.3793 -48.4763 270° West  Level Estimated
12:24PM -1.3793 -48.4763 270° West  Level Estimated
12:25PM -1.3793 -48.4763 270° West  Level Estimated
12:26PM -1.3793 -48.4763 270° West  Level Estimated
12:27PM -1.3793 -48.4763 270° West  Level Estimated
12:28PM -1.3793 -48.4763 270° West  Level Estimated
12:29PM -1.3793 -48.4763 270° West  Level Estimated
12:30PM -1.3793 -48.4763 270° West  Level Estimated
12:31PM -1.3793 -48.4763 270° West  Level Estimated